Informes de METARS cercanos

 

LEAL - Alicante/El Alte, Spain
Distance from station: SSE 60km
Actualización: 18/01/2018 18:00
Despejado
Despejado
 Viento del NE
Viento: NE 9 km/h
Temperatura: 14°C
Rocío: 11°C
Humedad: 82%
Barómetro: 1022 hPa
Resumen: Despejado
Visibility: greater than 10 km
2018/01/18 17:00 LEAL 181700Z 05005KT 020V080 CAVOK 14/11 Q1022 NOSIG
LEVC - Valencia (civ/Mi, Spain
Distance from station: NNE 84km
Actualización: 18/01/2018 18:00
Despejado
Despejado
 Viento del SSE
Viento: SSE 11 km/h
Temperatura: 13°C
Rocío: 7°C
Humedad: 67%
Barómetro: 1021 hPa
Resumen: Despejado
Visibility: greater than 10 km
2018/01/18 17:00 LEVC 181700Z 15006KT 120V180 CAVOK 13/07 Q1021 NOSIG
 
LEAB - Albacete (civ/Mi, Spain
Distance from station: O 95km
Actualización: 18/01/2018 18:00
Despejado
Despejado
 Viento del S
Viento: S 11 km/h
Temperatura: 11°C
Rocío: 4°C
Humedad: 62%
Barómetro: 1022 hPa
Resumen: Despejado
Visibility: greater than 10 km
2018/01/18 17:00 LEAB 181700Z 17006KT CAVOK 11/04 Q1022 NOSIG
LERI - Alcantarilla(Sp-, Spain
Distance from station: SSO 100km
Actualización: 18/01/2018 18:00
Despejado
Despejado
 Viento del ENE
Viento: ENE 9 km/h
Temperatura: 14°C
Rocío: 8°C
Humedad: 67%
Barómetro: 1021 hPa
Resumen: Despejado
Visibility: greater than 10 km
2018/01/18 17:00 LERI 181700Z 06005KT CAVOK 14/08 Q1021 NOSIG
 
LELC - San Javier(Mil/C, Spain
Distance from station: S 113km
Actualización: 18/01/2018 18:00
Despejado
Despejado
 Viento del NNE
Viento: NNE 11 km/h
Temperatura: 14°C
Rocío: 12°C
Humedad: 88%
Barómetro: 1021 hPa
Resumen: Despejado
Visibility: greater than 10 km
2018/01/18 17:00 LELC 181700Z 02006KT CAVOK 14/12 Q1021 NOSIG
LEIB - Ibiza/Es Codola, Spain
Distance from station: E 186km
Actualización: 18/01/2018 18:00
Parcialmente nuboso
Parcialmente nuboso
 Viento del ESE
Viento: ESE 7 km/h
Temperatura: 14°C
Rocío: 9°C
Humedad: 72%
Barómetro: 1022 hPa
Clouds: Parcialmente nuboso
Visibility: 10 km
Cloud details: Few Clouds 610 m
Parcialmente nuboso 1219 m
2018/01/18 17:00 LEIB 181700Z 12004KT 9999 FEW020 SCT040 14/09 Q1022 NOSIG
 
LEAM - Almeria Airport, Spain
Distance from station: SSO 256km
Actualización: 18/01/2018 18:00
Despejado
Despejado
 Viento del ENE
Viento: ENE 28 km/h
Temperatura: 16°C
Rocío: 7°C
Humedad: 55%
Barómetro: 1019 hPa
Resumen: Despejado
Visibility: greater than 10 km
2018/01/18 17:00 LEAM 181700Z 07015KT CAVOK 16/07 Q1019
LEMD - Madrid/Barajas, Spain
Distance from station: NO 305km
Actualización: 18/01/2018 18:00
Despejado
Despejado
 Viento del varies
Viento: varies 4 km/h
Temperatura: 12°C
Rocío: 0°C
Humedad: 44%
Barómetro: 1021 hPa
Resumen: Despejado
Visibility: greater than 10 km
2018/01/18 17:00 LEMD 181700Z VRB02KT CAVOK 12/00 Q1021 NOSIG
 
LEPA - Palma De Mallorc, Spain
Distance from station: ENE 313km
Actualización: 18/01/2018 18:00
Parcialmente nuboso
Parcialmente nuboso
 Viento del SO
Viento: SO 6 km/h
Temperatura: 14°C
Rocío: 9°C
Humedad: 72%
Barómetro: 1021 hPa
Clouds: Parcialmente nuboso
Visibility: 10 km
Cloud details: Parcialmente nuboso 671 m
2018/01/18 17:00 LEPA 181700Z 22003KT 9999 SCT022 14/09 Q1021 NOSIG